createdAt,value
2019-04-10T00:01:28.475Z,99.90
2019-04-10T00:04:29.742Z,99.90
2019-04-10T00:07:31.266Z,99.90
2019-04-10T00:10:32.284Z,99.90
2019-04-10T00:13:32.949Z,99.90
2019-04-10T00:16:34.213Z,99.90
2019-04-10T00:19:35.920Z,99.90
2019-04-10T00:22:38.125Z,99.90
2019-04-10T00:25:39.223Z,99.90
2019-04-10T00:28:41.329Z,99.90
2019-04-10T00:31:42.271Z,99.90
2019-04-10T00:34:42.890Z,99.90
2019-04-10T00:37:47.140Z,99.90
2019-04-10T00:40:46.327Z,99.90
2019-04-10T00:43:55.275Z,99.90
2019-04-10T00:47:04.493Z,99.90
2019-04-10T00:50:14.618Z,99.90
2019-04-10T00:53:23.649Z,99.90
2019-04-10T00:56:32.579Z,99.90
2019-04-10T00:59:42.154Z,99.90
2019-04-10T01:02:51.409Z,99.90
2019-04-10T01:06:01.727Z,99.90
2019-04-10T01:12:40.426Z,99.90
2019-04-10T01:15:49.172Z,99.90
2019-04-10T01:18:49.646Z,99.90
2019-04-10T01:21:50.677Z,99.90
2019-04-10T01:24:52.295Z,99.90
2019-04-10T01:27:53.689Z,99.90
2019-04-10T01:30:54.994Z,99.90
2019-04-10T01:33:56.817Z,99.90
2019-04-10T01:36:58.320Z,99.90
2019-04-10T01:39:59.324Z,99.90
2019-04-10T01:43:08.222Z,99.90
2019-04-10T01:46:04.131Z,99.90
2019-04-10T01:49:05.201Z,99.90
2019-04-10T01:52:06.962Z,99.90
2019-04-10T01:55:17.294Z,99.90
2019-04-10T01:58:12.845Z,99.90
2019-04-10T02:04:54.200Z,99.90
2019-04-10T02:08:08.518Z,99.90
2019-04-10T02:11:13.291Z,99.90
2019-04-10T02:14:22.434Z,99.90
2019-04-10T02:17:25.045Z,99.90
2019-04-10T02:20:27.075Z,99.90
2019-04-10T02:23:28.156Z,99.90
2019-04-10T02:26:29.693Z,99.90
2019-04-10T02:29:31.491Z,99.90
2019-04-10T02:32:32.620Z,99.90
2019-04-10T02:35:34.074Z,99.90
2019-04-10T02:38:49.160Z,99.90
2019-04-10T02:41:38.588Z,99.90
2019-04-10T02:44:41.527Z,99.90
2019-04-10T02:47:43.229Z,99.90
2019-04-10T02:50:44.950Z,99.90
2019-04-10T02:53:46.068Z,99.90
2019-04-10T02:56:47.929Z,99.90
2019-04-10T02:59:51.225Z,99.90
2019-04-10T03:02:52.112Z,99.90
2019-04-10T03:05:54.326Z,99.90
2019-04-10T03:09:07.982Z,99.90
2019-04-10T03:11:57.633Z,99.90
2019-04-10T03:14:59.152Z,99.90
2019-04-10T03:18:00.757Z,99.90
2019-04-10T03:21:01.358Z,99.90
2019-04-10T03:24:02.163Z,99.90
2019-04-10T03:27:03.753Z,99.90
2019-04-10T03:30:05.229Z,99.90
2019-04-10T03:33:29.331Z,99.90
2019-04-10T03:36:37.863Z,99.90
2019-04-10T03:39:39.011Z,99.90
2019-04-10T03:42:39.542Z,99.90
2019-04-10T03:45:41.127Z,99.90
2019-04-10T03:48:42.234Z,99.90
2019-04-10T03:51:43.063Z,99.90
2019-04-10T03:54:43.983Z,99.90
2019-04-10T03:57:44.864Z,99.90
2019-04-10T04:00:46.626Z,99.90
2019-04-10T04:03:47.341Z,99.90
2019-04-10T04:06:48.390Z,99.90
2019-04-10T04:09:49.050Z,99.90
2019-04-10T04:12:49.649Z,99.90
2019-04-10T04:15:50.621Z,99.90
2019-04-10T04:18:51.389Z,99.90
2019-04-10T04:21:52.333Z,99.90
2019-04-10T04:24:53.013Z,99.90
2019-04-10T04:27:53.932Z,99.90
2019-04-10T04:30:54.864Z,99.90
2019-04-10T04:33:55.654Z,99.90
2019-04-10T04:36:56.275Z,99.90
2019-04-10T04:39:58.281Z,99.90
2019-04-10T04:43:00.139Z,99.90
2019-04-10T04:46:01.259Z,99.90
2019-04-10T04:49:02.375Z,99.90
2019-04-10T04:52:03.046Z,99.90
2019-04-10T04:55:03.966Z,99.90
2019-04-10T04:58:04.586Z,99.90
2019-04-10T05:01:06.292Z,99.90
2019-04-10T05:04:06.870Z,99.90
2019-04-10T05:07:08.329Z,99.90
2019-04-10T05:10:09.157Z,99.90
2019-04-10T05:13:10.295Z,99.90
2019-04-10T05:16:10.129Z,99.90
2019-04-10T05:19:18.980Z,99.90
2019-04-10T05:22:27.990Z,99.90
2019-04-10T05:25:36.069Z,99.90
2019-04-10T05:28:46.664Z,99.90
2019-04-10T05:31:56.490Z,99.90
2019-04-10T05:35:08.109Z,99.90
2019-04-10T05:38:15.114Z,99.90
2019-04-10T05:41:24.307Z,99.90
2019-04-10T05:44:33.928Z,99.90
2019-04-10T05:47:42.570Z,99.90
2019-04-10T05:50:57.916Z,99.90
2019-04-10T05:54:00.293Z,99.90
2019-04-10T05:57:08.432Z,99.90
2019-04-10T06:03:45.744Z,99.90
2019-04-10T06:06:55.037Z,99.90
2019-04-10T06:10:06.439Z,99.90
2019-04-10T06:13:13.000Z,99.90
2019-04-10T06:16:22.574Z,99.90
2019-04-10T06:19:25.329Z,99.90
2019-04-10T06:22:26.412Z,99.90
2019-04-10T06:25:28.741Z,99.90
2019-04-10T06:28:30.985Z,99.90
2019-04-10T06:31:32.588Z,99.90
2019-04-10T06:34:34.258Z,99.90
2019-04-10T06:37:35.553Z,99.90
2019-04-10T06:40:37.566Z,99.90
2019-04-10T06:43:39.243Z,99.90
2019-04-10T06:46:40.711Z,99.90
2019-04-10T06:49:42.930Z,99.90
2019-04-10T06:52:43.562Z,99.90
2019-04-10T06:55:44.885Z,99.90
2019-04-10T06:58:46.122Z,99.90
2019-04-10T07:01:52.285Z,99.90
2019-04-10T07:04:55.641Z,99.90
2019-04-10T07:07:57.535Z,99.90
2019-04-10T07:11:02.558Z,99.90
2019-04-10T07:13:58.488Z,99.90
2019-04-10T07:17:05.074Z,99.90
2019-04-10T07:20:03.177Z,99.90
2019-04-10T07:23:04.919Z,99.90
2019-04-10T07:26:06.012Z,99.90
2019-04-10T07:29:06.723Z,99.90
2019-04-10T07:32:09.632Z,99.90
2019-04-10T07:35:10.921Z,99.90
2019-04-10T07:38:13.875Z,99.90
2019-04-10T07:41:21.022Z,99.90
2019-04-10T07:44:17.368Z,99.90
2019-04-10T07:47:18.154Z,99.90
2019-04-10T07:50:18.890Z,99.90
2019-04-10T07:53:19.830Z,99.90
2019-04-10T07:56:20.929Z,99.90
2019-04-10T07:59:21.658Z,99.90
2019-04-10T08:02:23.277Z,99.90
2019-04-10T08:05:24.981Z,99.90
2019-04-10T08:08:25.745Z,99.90
2019-04-10T08:11:26.661Z,99.90
2019-04-10T08:14:27.525Z,99.90
2019-04-10T08:17:28.309Z,99.90
2019-04-10T08:20:29.028Z,99.90
2019-04-10T08:23:30.200Z,99.90
2019-04-10T08:26:30.797Z,99.90
2019-04-10T08:29:32.350Z,99.90
2019-04-10T08:32:40.438Z,99.90
2019-04-10T08:35:36.042Z,99.90
2019-04-10T08:38:37.890Z,99.90
2019-04-10T08:41:41.615Z,99.90
2019-04-10T08:44:42.528Z,99.90
2019-04-10T08:47:44.248Z,99.90
2019-04-10T08:50:46.115Z,99.90
2019-04-10T08:53:46.911Z,99.90
2019-04-10T08:56:47.493Z,99.90
2019-04-10T08:59:48.386Z,99.90
2019-04-10T09:02:48.834Z,99.90
2019-04-10T09:05:49.799Z,99.90
2019-04-10T09:08:50.985Z,99.90
2019-04-10T09:11:51.660Z,99.90
2019-04-10T09:14:52.102Z,99.90
2019-04-10T09:17:53.068Z,99.90
2019-04-10T09:20:55.133Z,99.90
2019-04-10T09:23:57.647Z,99.90
2019-04-10T09:27:00.281Z,99.90
2019-04-10T09:30:00.949Z,99.90
2019-04-10T09:33:05.588Z,99.90
2019-04-10T09:36:04.798Z,99.90
2019-04-10T09:39:07.309Z,99.90
2019-04-10T09:42:08.682Z,99.90
2019-04-10T09:45:09.913Z,99.90
2019-04-10T09:48:10.723Z,99.90
2019-04-10T09:51:11.805Z,99.90
2019-04-10T09:54:13.349Z,99.90
2019-04-10T09:57:15.177Z,99.90
2019-04-10T10:00:16.134Z,99.90
2019-04-10T10:03:17.366Z,99.90
2019-04-10T10:06:27.311Z,99.90
2019-04-10T10:09:21.702Z,99.90
2019-04-10T10:12:23.529Z,99.90
2019-04-10T10:15:25.173Z,99.90
2019-04-10T10:18:25.506Z,99.90
2019-04-10T10:21:34.614Z,99.90
2019-04-10T10:24:43.358Z,99.90
2019-04-10T10:27:51.381Z,99.90
2019-04-10T10:30:59.921Z,99.90
2019-04-10T10:34:10.175Z,99.90
2019-04-10T10:37:18.859Z,99.90
2019-04-10T10:40:27.639Z,99.90
2019-04-10T10:43:36.602Z,99.90
2019-04-10T10:46:44.707Z,99.90
2019-04-10T10:49:52.885Z,99.90
2019-04-10T10:53:02.494Z,99.90
2019-04-10T10:56:10.593Z,99.90
2019-04-10T10:59:19.601Z,99.90
2019-04-10T11:02:28.350Z,99.90
2019-04-10T11:05:37.154Z,99.90
2019-04-10T11:08:46.121Z,99.90
2019-04-10T11:11:54.271Z,99.90
2019-04-10T11:15:03.492Z,99.90
2019-04-10T11:18:12.101Z,99.90
2019-04-10T11:21:20.709Z,99.90
2019-04-10T11:24:31.471Z,95.90
2019-04-10T11:30:54.402Z,96.30
2019-04-10T11:34:03.149Z,93.40
2019-04-10T11:37:23.333Z,91.50
2019-04-10T11:40:23.530Z,90.00
2019-04-10T11:43:33.459Z,89.20
2019-04-10T11:46:41.995Z,86.70
2019-04-10T11:49:51.196Z,91.00
2019-04-10T11:53:01.715Z,89.00
2019-04-10T11:56:05.261Z,85.70
2019-04-10T11:59:05.752Z,84.50
2019-04-10T12:02:08.839Z,80.80
2019-04-10T12:05:14.876Z,79.20
2019-04-10T12:11:18.832Z,77.70
2019-04-10T12:14:18.145Z,78.70
2019-04-10T12:17:20.076Z,79.60
2019-04-10T12:20:20.949Z,80.30
2019-04-10T12:23:21.679Z,78.40
2019-04-10T12:26:23.473Z,74.40
2019-04-10T12:29:24.696Z,72.30
2019-04-10T12:32:25.193Z,70.20
2019-04-10T12:35:26.131Z,67.90
2019-04-10T12:38:27.712Z,69.50
2019-04-10T12:41:28.545Z,66.50
2019-04-10T12:44:29.631Z,70.10
2019-04-10T12:47:30.926Z,67.30
2019-04-10T12:50:32.771Z,67.50
2019-04-10T12:53:33.874Z,65.80
2019-04-10T12:56:34.629Z,63.10
2019-04-10T12:59:35.343Z,64.60
2019-04-10T13:02:36.557Z,66.00
2019-04-10T13:05:37.540Z,66.80
2019-04-10T13:08:52.632Z,61.40
2019-04-10T13:11:40.577Z,62.10
2019-04-10T13:14:48.669Z,62.70
2019-04-10T13:17:57.524Z,66.50
2019-04-10T13:21:06.505Z,64.30
2019-04-10T13:27:28.617Z,61.90
2019-04-10T13:30:46.921Z,59.90
2019-04-10T13:33:48.912Z,60.60
2019-04-10T13:36:57.547Z,61.90
2019-04-10T13:40:05.885Z,60.50
2019-04-10T13:43:13.914Z,58.70
2019-04-10T13:46:21.922Z,56.30
2019-04-10T13:49:30.276Z,56.80
2019-04-10T13:56:01.281Z,53.50
2019-04-10T13:59:01.880Z,54.60
2019-04-10T14:02:02.802Z,52.90
2019-04-10T14:05:05.324Z,51.20
2019-04-10T14:08:06.389Z,49.90
2019-04-10T14:11:07.021Z,50.00
2019-04-10T14:14:08.545Z,48.60
2019-04-10T14:17:09.670Z,49.60
2019-04-10T14:20:11.068Z,48.90
2019-04-10T14:26:48.917Z,45.50
2019-04-10T14:29:49.077Z,46.70
2019-04-10T14:32:51.423Z,45.70
2019-04-10T14:35:52.132Z,45.50
2019-04-10T14:38:52.809Z,45.80
2019-04-10T14:41:53.959Z,44.90
2019-04-10T14:44:55.185Z,45.20
2019-04-10T14:47:56.722Z,46.00
2019-04-10T14:50:58.181Z,47.20
2019-04-10T14:53:59.557Z,44.90
2019-04-10T14:57:00.741Z,44.50
2019-04-10T15:00:01.391Z,45.10
2019-04-10T15:03:02.262Z,43.20
2019-04-10T15:06:03.288Z,44.50
2019-04-10T15:09:04.164Z,44.30
2019-04-10T15:12:05.338Z,44.30
2019-04-10T15:15:06.394Z,44.80
2019-04-10T15:18:07.207Z,44.60
2019-04-10T15:21:08.264Z,43.70
2019-04-10T15:24:09.133Z,44.60
2019-04-10T15:27:11.062Z,42.00
2019-04-10T15:30:12.533Z,42.10
2019-04-10T15:33:14.197Z,42.60
2019-04-10T15:36:15.789Z,43.70
2019-04-10T15:39:17.157Z,44.00
2019-04-10T15:42:17.870Z,43.30
2019-04-10T15:45:19.437Z,42.60
2019-04-10T15:48:20.942Z,42.60
2019-04-10T15:51:22.350Z,43.40
2019-04-10T15:54:23.681Z,44.00
2019-04-10T15:57:24.978Z,42.90
2019-04-10T16:00:25.646Z,43.30
2019-04-10T16:03:26.223Z,43.90
2019-04-10T16:06:26.785Z,43.20
2019-04-10T16:09:27.987Z,42.70
2019-04-10T16:12:30.290Z,42.50
2019-04-10T16:15:35.378Z,43.90
2019-04-10T16:18:36.731Z,43.80
2019-04-10T16:21:38.028Z,42.70
2019-04-10T16:24:38.839Z,42.40
2019-04-10T16:27:41.142Z,41.80
2019-04-10T16:30:43.215Z,41.40
2019-04-10T16:33:44.160Z,41.10
2019-04-10T16:36:45.819Z,42.10
2019-04-10T16:39:57.850Z,41.70
2019-04-10T16:42:50.807Z,42.80
2019-04-10T16:45:51.613Z,42.80
2019-04-10T16:48:52.789Z,44.00
2019-04-10T16:51:53.469Z,42.50
2019-04-10T16:54:54.142Z,43.10
2019-04-10T16:57:55.691Z,42.30
2019-04-10T17:00:57.939Z,42.70
2019-04-10T17:03:58.737Z,41.80
2019-04-10T17:06:59.592Z,43.10
2019-04-10T17:10:12.800Z,42.80
2019-04-10T17:13:04.463Z,44.20
2019-04-10T17:16:05.585Z,43.70
2019-04-10T17:19:07.604Z,42.80
2019-04-10T17:22:08.953Z,43.60
2019-04-10T17:25:09.678Z,44.70
2019-04-10T17:28:10.359Z,46.20
2019-04-10T17:31:11.933Z,46.90
2019-04-10T17:34:13.170Z,47.70
2019-04-10T17:37:14.351Z,47.80
2019-04-10T17:40:28.418Z,48.90
2019-04-10T17:43:19.018Z,50.00
2019-04-10T17:46:21.042Z,50.50
2019-04-10T17:49:21.826Z,50.80
2019-04-10T17:52:22.945Z,51.90
2019-04-10T17:55:23.664Z,52.10
2019-04-10T17:58:25.399Z,53.50
2019-04-10T18:01:27.161Z,54.10
2019-04-10T18:04:29.709Z,53.80
2019-04-10T18:07:30.394Z,53.90
2019-04-10T18:10:43.577Z,53.90
2019-04-10T18:13:34.213Z,54.30
2019-04-10T18:16:36.088Z,54.80
2019-04-10T18:19:38.515Z,54.90
2019-04-10T18:22:39.231Z,55.40
2019-04-10T18:25:40.227Z,55.70
2019-04-10T18:28:41.494Z,56.30
2019-04-10T18:31:43.098Z,56.40
2019-04-10T18:34:44.576Z,57.00
2019-04-10T18:37:46.668Z,57.30
2019-04-10T18:40:58.211Z,58.20
2019-04-10T18:43:51.174Z,58.10
2019-04-10T18:46:52.259Z,57.50
2019-04-10T18:49:53.965Z,57.90
2019-04-10T18:52:55.967Z,58.20
2019-04-10T18:55:56.978Z,58.20
2019-04-10T18:59:16.670Z,58.70
2019-04-10T19:02:37.023Z,59.30
2019-04-10T19:05:40.526Z,59.90
2019-04-10T19:08:41.578Z,59.90
2019-04-10T19:11:42.229Z,61.10
2019-04-10T19:14:43.015Z,61.10
2019-04-10T19:17:43.813Z,61.60
2019-04-10T19:20:44.641Z,62.80
2019-04-10T19:23:45.708Z,63.90
2019-04-10T19:26:47.426Z,63.90
2019-04-10T19:29:48.752Z,64.80
2019-04-10T19:32:49.916Z,65.10
2019-04-10T19:35:50.980Z,65.70
2019-04-10T19:38:51.743Z,67.10
2019-04-10T19:41:53.870Z,68.60
2019-04-10T19:44:55.301Z,67.50
2019-04-10T19:47:56.992Z,67.40
2019-04-10T19:50:58.130Z,68.60
2019-04-10T19:54:00.020Z,67.90
2019-04-10T19:57:01.822Z,69.30
2019-04-10T20:00:02.536Z,69.70
2019-04-10T20:03:03.647Z,70.10
2019-04-10T20:06:04.226Z,70.40
2019-04-10T20:09:06.333Z,70.80
2019-04-10T20:12:08.480Z,71.70
2019-04-10T20:15:10.044Z,71.40
2019-04-10T20:18:11.209Z,72.50
2019-04-10T20:21:12.120Z,73.70
2019-04-10T20:24:12.929Z,72.70
2019-04-10T20:27:14.110Z,73.80
2019-04-10T20:30:15.316Z,73.60
2019-04-10T20:33:14.658Z,74.40
2019-04-10T20:36:22.836Z,75.80
2019-04-10T20:39:33.570Z,75.20
2019-04-10T20:42:42.624Z,76.60
2019-04-10T20:45:52.082Z,77.10
2019-04-10T20:49:00.587Z,78.80
2019-04-10T20:52:10.433Z,79.00
2019-04-10T20:55:13.201Z,79.60
2019-04-10T20:58:14.106Z,81.30
2019-04-10T21:01:15.129Z,82.20
2019-04-10T21:04:16.836Z,83.90
2019-04-10T21:07:19.146Z,85.60
2019-04-10T21:10:19.770Z,86.60
2019-04-10T21:13:21.934Z,88.10
2019-04-10T21:16:23.154Z,89.60
2019-04-10T21:19:24.837Z,90.30
2019-04-10T21:22:26.485Z,91.00
2019-04-10T21:25:27.434Z,91.70
2019-04-10T21:28:26.621Z,93.10
2019-04-10T21:31:53.814Z,93.80
2019-04-10T21:38:30.560Z,95.90
2019-04-10T21:41:38.996Z,97.00
2019-04-10T21:44:49.228Z,99.00
2019-04-10T21:47:58.012Z,98.60
2019-04-10T21:51:06.795Z,99.50
2019-04-10T21:54:09.758Z,99.90
2019-04-10T21:57:10.705Z,99.90
2019-04-10T22:00:12.253Z,99.90
2019-04-10T22:03:13.501Z,99.90
2019-04-10T22:06:33.634Z,99.90
2019-04-10T22:13:05.911Z,99.90
2019-04-10T22:16:09.359Z,99.90
2019-04-10T22:19:10.258Z,99.90
2019-04-10T22:22:11.422Z,99.90
2019-04-10T22:25:13.582Z,99.90
2019-04-10T22:28:14.961Z,99.90
2019-04-10T22:31:16.238Z,99.90
2019-04-10T22:34:17.169Z,99.90
2019-04-10T22:37:17.766Z,99.90
2019-04-10T22:40:19.346Z,99.90
2019-04-10T22:43:20.324Z,99.90
2019-04-10T22:46:21.366Z,99.90
2019-04-10T22:49:22.561Z,99.90
2019-04-10T22:52:24.034Z,99.90
2019-04-10T22:55:25.929Z,99.90
2019-04-10T22:58:26.793Z,99.90
2019-04-10T23:01:27.307Z,99.90
2019-04-10T23:04:28.670Z,99.90
2019-04-10T23:07:30.202Z,99.90
2019-04-10T23:10:30.983Z,99.90
2019-04-10T23:13:32.073Z,99.90
2019-04-10T23:16:32.905Z,99.90
2019-04-10T23:19:34.218Z,99.90
2019-04-10T23:22:35.554Z,99.90
2019-04-10T23:25:36.545Z,99.90
2019-04-10T23:28:37.891Z,99.90
2019-04-10T23:31:39.230Z,99.90
2019-04-10T23:34:40.924Z,99.90
2019-04-10T23:37:42.383Z,99.90
2019-04-10T23:40:43.253Z,99.90
2019-04-10T23:43:44.019Z,99.90
2019-04-10T23:46:45.427Z,99.90
2019-04-10T23:49:45.997Z,99.90
2019-04-10T23:52:47.766Z,99.90
2019-04-10T23:55:48.445Z,99.90
2019-04-10T23:58:49.229Z,99.90
